createdAt,value
2018-04-18T00:01:34.230Z,75.12
2018-04-18T00:04:00.544Z,75.24
2018-04-18T00:06:27.599Z,75.12
2018-04-18T00:08:53.899Z,74.88
2018-04-18T00:11:20.308Z,74.72
2018-04-18T00:13:46.570Z,74.78
2018-04-18T00:16:12.952Z,74.59
2018-04-18T00:18:39.218Z,74.69
2018-04-18T00:21:05.658Z,75.36
2018-04-18T00:23:31.937Z,75.56
2018-04-18T00:25:58.295Z,75.49
2018-04-18T00:28:24.623Z,75.35
2018-04-18T00:30:51.670Z,75.18
2018-04-18T00:33:17.958Z,75.10
2018-04-18T00:35:45.081Z,74.71
2018-04-18T00:38:11.376Z,74.99
2018-04-18T00:40:37.678Z,75.28
2018-04-18T00:43:03.992Z,75.71
2018-04-18T00:45:31.029Z,75.72
2018-04-18T00:47:57.345Z,75.74
2018-04-18T00:50:23.643Z,75.73
2018-04-18T00:52:49.943Z,75.92
2018-04-18T00:55:16.983Z,76.11
2018-04-18T00:57:43.994Z,76.20
2018-04-18T01:00:10.719Z,76.27
2018-04-18T01:02:37.038Z,75.78
2018-04-18T01:05:03.308Z,75.71
2018-04-18T01:07:29.600Z,75.80
2018-04-18T01:09:55.881Z,75.56
2018-04-18T01:12:22.203Z,75.69
2018-04-18T01:14:48.563Z,75.91
2018-04-18T01:17:15.959Z,75.68
2018-04-18T01:19:42.252Z,75.92
2018-04-18T01:22:08.579Z,75.97
2018-04-18T01:24:35.605Z,75.67
2018-04-18T01:27:01.935Z,75.66
2018-04-18T01:29:29.086Z,75.94
2018-04-18T01:31:55.452Z,76.27
2018-04-18T01:34:21.769Z,75.96
2018-04-18T01:36:48.801Z,76.04
2018-04-18T01:39:15.886Z,76.11
2018-04-18T01:41:42.238Z,75.75
2018-04-18T01:44:08.551Z,75.52
2018-04-18T01:46:34.823Z,75.18
2018-04-18T01:49:19.673Z,75.10
2018-04-18T01:51:46.000Z,75.23
2018-04-18T01:54:12.321Z,74.99
2018-04-18T01:56:38.645Z,74.87
2018-04-18T01:59:04.916Z,74.81
2018-04-18T02:01:31.173Z,74.58
2018-04-18T02:03:58.173Z,74.96
2018-04-18T02:06:24.475Z,74.97
2018-04-18T02:08:50.793Z,75.16
2018-04-18T02:11:17.099Z,75.10
2018-04-18T02:13:43.403Z,75.01
2018-04-18T02:16:09.738Z,74.80
2018-04-18T02:18:36.366Z,74.63
2018-04-18T02:21:02.691Z,74.77
2018-04-18T02:23:28.988Z,74.82
2018-04-18T02:25:55.322Z,74.88
2018-04-18T02:28:21.607Z,74.87
2018-04-18T02:30:47.908Z,74.90
2018-04-18T02:33:14.196Z,74.55
2018-04-18T02:35:40.534Z,74.18
2018-04-18T02:38:06.904Z,74.03
2018-04-18T02:40:33.188Z,73.58
2018-04-18T02:43:00.185Z,73.46
2018-04-18T02:45:26.448Z,73.68
2018-04-18T02:47:52.738Z,73.85
2018-04-18T02:50:19.065Z,73.58
2018-04-18T02:52:45.354Z,73.43
2018-04-18T02:55:11.639Z,73.42
2018-04-18T02:57:37.957Z,73.25
2018-04-18T03:00:04.258Z,72.74
2018-04-18T03:02:31.954Z,72.60
2018-04-18T03:04:58.253Z,72.60
2018-04-18T03:07:24.590Z,72.81
2018-04-18T03:09:50.876Z,73.25
2018-04-18T03:12:17.223Z,73.33
2018-04-18T03:14:44.323Z,72.86
2018-04-18T03:17:10.621Z,73.06
2018-04-18T03:19:37.089Z,73.49
2018-04-18T03:22:03.432Z,73.96
2018-04-18T03:24:29.759Z,74.18
2018-04-18T03:26:56.070Z,74.56
2018-04-18T03:29:22.376Z,74.53
2018-04-18T03:31:48.650Z,74.73
2018-04-18T03:34:14.945Z,74.50
2018-04-18T03:36:41.293Z,74.45
2018-04-18T03:39:07.560Z,75.11
2018-04-18T03:41:33.828Z,75.05
2018-04-18T03:44:00.904Z,74.96
2018-04-18T03:46:27.152Z,74.89
2018-04-18T03:48:53.485Z,75.08
2018-04-18T03:51:19.811Z,74.90
2018-04-18T03:53:46.168Z,75.23
2018-04-18T03:56:12.488Z,75.11
2018-04-18T03:58:38.902Z,74.97
2018-04-18T04:01:05.201Z,74.93
2018-04-18T04:03:31.485Z,74.77
2018-04-18T04:05:57.782Z,74.78
2018-04-18T04:08:24.144Z,74.84
2018-04-18T04:10:50.421Z,75.08
2018-04-18T04:13:17.541Z,74.91
2018-04-18T04:15:44.561Z,74.79
2018-04-18T04:18:29.621Z,74.68
2018-04-18T04:21:14.448Z,74.93
2018-04-18T04:24:00.175Z,75.02
2018-04-18T04:26:26.438Z,75.26
2018-04-18T04:28:52.745Z,75.29
2018-04-18T04:31:19.058Z,75.06
2018-04-18T04:33:45.340Z,74.89
2018-04-18T04:36:11.678Z,74.70
2018-04-18T04:38:38.712Z,74.20
2018-04-18T04:41:04.987Z,73.62
2018-04-18T04:43:32.335Z,73.38
2018-04-18T04:45:58.669Z,73.24
2018-04-18T04:48:24.969Z,73.10
2018-04-18T04:50:52.077Z,72.70
2018-04-18T04:53:18.393Z,72.30
2018-04-18T04:55:44.679Z,72.54
2018-04-18T04:58:10.969Z,72.13
2018-04-18T05:00:37.278Z,71.68
2018-04-18T05:03:03.541Z,71.63
2018-04-18T05:05:29.932Z,71.65
2018-04-18T05:07:56.224Z,71.10
2018-04-18T05:10:22.495Z,70.51
2018-04-18T05:12:48.856Z,70.13
2018-04-18T05:15:15.163Z,69.64
2018-04-18T05:17:41.516Z,68.71
2018-04-18T05:20:07.819Z,67.93
2018-04-18T05:22:34.230Z,67.08
2018-04-18T05:25:01.264Z,66.97
2018-04-18T05:27:27.559Z,66.30
2018-04-18T05:29:53.923Z,65.80
2018-04-18T05:32:20.323Z,64.41
2018-04-18T05:34:46.602Z,64.25
2018-04-18T05:37:13.660Z,64.15
2018-04-18T05:39:40.690Z,63.20
2018-04-18T05:42:06.981Z,62.85
2018-04-18T05:44:33.308Z,62.32
2018-04-18T05:46:59.593Z,61.62
2018-04-18T05:49:26.654Z,61.23
2018-04-18T05:51:52.971Z,60.19
2018-04-18T05:54:20.009Z,59.71
2018-04-18T05:56:46.321Z,58.71
2018-04-18T05:59:12.629Z,58.47
2018-04-18T06:01:38.984Z,57.59
2018-04-18T06:04:05.282Z,56.45
2018-04-18T06:06:31.607Z,55.80
2018-04-18T06:08:58.661Z,55.67
2018-04-18T06:11:24.955Z,54.89
2018-04-18T06:13:51.996Z,54.47
2018-04-18T06:16:19.045Z,54.02
2018-04-18T06:18:46.067Z,53.33
2018-04-18T06:21:12.400Z,53.36
2018-04-18T06:23:38.704Z,52.81
2018-04-18T06:26:04.989Z,52.46
2018-04-18T06:28:32.007Z,52.19
2018-04-18T06:30:58.257Z,52.57
2018-04-18T06:33:25.311Z,52.36
2018-04-18T06:35:52.345Z,52.64
2018-04-18T06:38:25.628Z,52.16
2018-04-18T06:40:51.950Z,51.50
2018-04-18T06:43:18.243Z,50.85
2018-04-18T06:45:44.547Z,50.27
2018-04-18T06:48:11.629Z,49.68
2018-04-18T06:50:38.034Z,49.08
2018-04-18T06:53:05.150Z,48.85
2018-04-18T06:55:31.523Z,48.73
2018-04-18T06:57:57.846Z,48.35
2018-04-18T07:00:24.169Z,48.89
2018-04-18T07:02:51.288Z,48.89
2018-04-18T07:05:17.610Z,48.57
2018-04-18T07:07:43.988Z,48.57
2018-04-18T07:10:11.030Z,48.06
2018-04-18T07:12:38.077Z,47.47
2018-04-18T07:15:05.129Z,47.84
2018-04-18T07:17:32.132Z,47.12
2018-04-18T07:19:58.407Z,46.82
2018-04-18T07:22:25.477Z,46.86
2018-04-18T07:24:51.819Z,46.39
2018-04-18T07:27:18.107Z,46.49
2018-04-18T07:29:45.201Z,45.51
2018-04-18T07:32:11.519Z,44.80
2018-04-18T07:34:37.801Z,44.50
2018-04-18T07:37:04.130Z,44.00
2018-04-18T07:39:30.513Z,44.32
2018-04-18T07:41:57.720Z,43.51
2018-04-18T07:44:24.026Z,42.10
2018-04-18T07:46:50.387Z,42.89
2018-04-18T07:49:16.725Z,42.87
2018-04-18T07:51:43.816Z,42.39
2018-04-18T07:54:10.103Z,42.97
2018-04-18T07:56:36.671Z,42.71
2018-04-18T07:59:03.001Z,42.35
2018-04-18T08:01:29.233Z,41.57
2018-04-18T08:03:55.526Z,40.71
2018-04-18T08:06:21.920Z,41.42
2018-04-18T08:08:48.237Z,40.98
2018-04-18T08:11:14.640Z,41.09
2018-04-18T08:13:41.705Z,40.48
2018-04-18T08:16:07.998Z,41.06
2018-04-18T08:18:34.382Z,41.43
2018-04-18T08:21:00.766Z,41.25
2018-04-18T08:23:27.096Z,40.65
2018-04-18T08:25:55.686Z,40.00
2018-04-18T08:28:22.756Z,39.10
2018-04-18T08:30:49.088Z,39.17
2018-04-18T08:33:15.424Z,39.14
2018-04-18T08:35:41.749Z,39.09
2018-04-18T08:38:08.837Z,38.24
2018-04-18T08:40:35.195Z,38.16
2018-04-18T08:43:01.497Z,38.66
2018-04-18T08:45:27.826Z,38.86
2018-04-18T08:47:54.116Z,38.42
2018-04-18T08:50:21.173Z,38.35
2018-04-18T08:52:47.535Z,37.84
2018-04-18T08:55:13.835Z,37.03
2018-04-18T08:57:40.168Z,37.00
2018-04-18T09:00:06.509Z,37.03
2018-04-18T09:02:32.867Z,36.23
2018-04-18T09:04:59.227Z,36.82
2018-04-18T09:07:25.596Z,37.75
2018-04-18T09:09:51.902Z,37.16
2018-04-18T09:12:18.995Z,36.06
2018-04-18T09:14:45.340Z,34.77
2018-04-18T09:17:11.664Z,34.62
2018-04-18T09:19:37.995Z,33.07
2018-04-18T09:22:04.352Z,34.16
2018-04-18T09:24:30.625Z,34.58
2018-04-18T09:26:57.692Z,34.98
2018-04-18T09:29:24.055Z,32.78
2018-04-18T09:31:50.337Z,34.51
2018-04-18T09:34:16.657Z,34.63
2018-04-18T09:36:43.737Z,33.92
2018-04-18T09:39:10.075Z,32.06
2018-04-18T09:41:36.370Z,32.42
2018-04-18T09:44:03.411Z,31.68
2018-04-18T09:46:30.512Z,29.42
2018-04-18T09:48:56.834Z,31.92
2018-04-18T09:51:23.188Z,29.92
2018-04-18T09:53:49.546Z,29.37
2018-04-18T09:56:16.590Z,30.20
2018-04-18T09:58:43.009Z,29.96
2018-04-18T10:01:09.300Z,30.74
2018-04-18T10:03:45.651Z,29.36
2018-04-18T10:06:12.051Z,28.38
2018-04-18T10:08:39.121Z,27.75
2018-04-18T10:11:06.176Z,25.90
2018-04-18T10:13:32.517Z,26.40
2018-04-18T10:15:58.875Z,25.06
2018-04-18T10:18:25.159Z,25.31
2018-04-18T10:20:52.238Z,26.21
2018-04-18T10:23:18.783Z,26.31
2018-04-18T10:25:45.165Z,26.98
2018-04-18T10:28:11.455Z,27.56
2018-04-18T10:30:38.108Z,28.35
2018-04-18T10:33:04.438Z,27.64
2018-04-18T10:35:30.792Z,27.41
2018-04-18T10:37:57.128Z,26.51
2018-04-18T10:40:24.136Z,27.44
2018-04-18T10:42:50.444Z,28.30
2018-04-18T10:45:16.815Z,28.69
2018-04-18T10:47:43.959Z,26.94
2018-04-18T10:50:10.373Z,26.85
2018-04-18T10:52:36.745Z,27.64
2018-04-18T10:55:03.076Z,27.59
2018-04-18T10:57:29.386Z,26.86
2018-04-18T10:59:55.737Z,28.26
2018-04-18T11:02:22.049Z,25.52
2018-04-18T11:04:48.353Z,25.66
2018-04-18T11:07:14.666Z,26.19
2018-04-18T11:09:40.974Z,26.95
2018-04-18T11:12:07.365Z,25.97
2018-04-18T11:14:33.727Z,25.94
2018-04-18T11:17:00.026Z,24.53
2018-04-18T11:19:26.362Z,25.13
2018-04-18T11:21:53.383Z,25.72
2018-04-18T11:24:19.776Z,25.42
2018-04-18T11:26:46.054Z,24.60
2018-04-18T11:29:12.365Z,24.51
2018-04-18T11:31:38.694Z,23.91
2018-04-18T11:34:05.052Z,24.64
2018-04-18T11:36:31.379Z,23.05
2018-04-18T11:38:57.925Z,22.90
2018-04-18T11:41:24.220Z,21.50
2018-04-18T11:43:51.309Z,19.52
2018-04-18T11:46:17.633Z,16.89
2018-04-18T11:48:43.967Z,14.83
2018-04-18T11:51:10.336Z,12.71
2018-04-18T11:53:36.637Z,11.44
2018-04-18T11:56:02.942Z,10.81
2018-04-18T11:58:29.217Z,9.60
2018-04-18T12:00:55.632Z,7.68
2018-04-18T12:03:21.934Z,7.79
2018-04-18T12:05:48.221Z,7.22
2018-04-18T12:08:14.507Z,6.92
2018-04-18T12:10:40.753Z,7.24
2018-04-18T12:13:07.069Z,6.68
2018-04-18T12:15:33.389Z,5.71
2018-04-18T12:17:59.727Z,5.33
2018-04-18T12:20:26.035Z,4.71
2018-04-18T12:22:52.373Z,4.48
2018-04-18T12:25:18.665Z,4.22
2018-04-18T12:27:44.989Z,4.92
2018-04-18T12:30:11.278Z,4.40
2018-04-18T12:32:37.569Z,4.32
2018-04-18T12:35:03.831Z,4.45
2018-04-18T12:37:32.728Z,4.43
2018-04-18T12:39:59.124Z,4.38
2018-04-18T12:42:26.141Z,4.70
2018-04-18T12:44:52.485Z,5.07
2018-04-18T12:47:18.821Z,5.98
2018-04-18T12:49:45.098Z,5.88
2018-04-18T12:52:11.391Z,6.28
2018-04-18T12:54:37.647Z,6.52
2018-04-18T12:57:04.062Z,5.82
2018-04-18T12:59:31.115Z,5.50
2018-04-18T13:01:57.365Z,4.24
2018-04-18T13:04:23.637Z,3.73
2018-04-18T13:06:49.950Z,3.30
2018-04-18T13:09:16.264Z,3.28
2018-04-18T13:11:45.107Z,3.24
2018-04-18T13:14:11.399Z,3.16
2018-04-18T13:16:37.677Z,3.65
2018-04-18T13:19:04.731Z,4.89
2018-04-18T13:21:31.809Z,5.57
2018-04-18T13:23:58.130Z,6.32
2018-04-18T13:26:24.483Z,6.13
2018-04-18T13:28:50.830Z,6.13
2018-04-18T13:31:17.226Z,6.40
2018-04-18T13:33:43.590Z,5.44
2018-04-18T13:36:09.890Z,4.38
2018-04-18T13:38:36.190Z,5.04
2018-04-18T13:41:03.257Z,4.69
2018-04-18T13:43:30.295Z,4.88
2018-04-18T13:45:57.351Z,4.31
2018-04-18T13:48:23.740Z,3.86
2018-04-18T13:50:50.019Z,4.36
2018-04-18T13:53:16.394Z,4.65
2018-04-18T13:55:42.690Z,5.03
2018-04-18T13:58:09.021Z,5.43
2018-04-18T14:00:35.343Z,6.62
2018-04-18T14:03:01.706Z,5.87
2018-04-18T14:05:28.031Z,4.89
2018-04-18T14:07:54.372Z,4.36
2018-04-18T14:10:20.682Z,4.43
2018-04-18T14:12:46.974Z,4.72
2018-04-18T14:15:14.037Z,5.71
2018-04-18T14:17:40.334Z,5.61
2018-04-18T14:20:06.658Z,5.93
2018-04-18T14:22:33.689Z,6.65
2018-04-18T14:25:00.033Z,6.25
2018-04-18T14:27:26.340Z,7.39
2018-04-18T14:29:52.673Z,8.98
2018-04-18T14:32:19.110Z,9.32
2018-04-18T14:34:45.447Z,7.57
2018-04-18T14:37:11.709Z,7.75
2018-04-18T14:39:38.039Z,8.52
2018-04-18T14:42:04.358Z,8.61
2018-04-18T14:44:30.668Z,9.01
2018-04-18T14:46:57.019Z,8.42
2018-04-18T14:49:23.382Z,6.87
2018-04-18T14:51:50.452Z,6.58
2018-04-18T14:54:16.904Z,5.66
2018-04-18T14:56:43.240Z,5.28
2018-04-18T14:59:09.564Z,6.45
2018-04-18T15:01:35.887Z,7.02
2018-04-18T15:04:02.182Z,6.93
2018-04-18T15:06:28.484Z,6.08
2018-04-18T15:08:54.763Z,5.75
2018-04-18T15:11:21.837Z,5.53
2018-04-18T15:13:48.164Z,6.04
2018-04-18T15:16:14.460Z,6.31
2018-04-18T15:18:41.713Z,6.43
2018-04-18T15:21:08.794Z,7.23
2018-04-18T15:23:35.168Z,7.27
2018-04-18T15:26:01.496Z,7.67
2018-04-18T15:28:27.907Z,6.80
2018-04-18T15:30:54.300Z,7.69
2018-04-18T15:33:21.676Z,7.03
2018-04-18T15:35:48.043Z,7.14
2018-04-18T15:38:14.388Z,6.66
2018-04-18T15:40:40.724Z,6.62
2018-04-18T15:43:07.821Z,6.87
2018-04-18T15:45:34.154Z,7.79
2018-04-18T15:48:00.493Z,7.96
2018-04-18T15:50:26.845Z,8.08
2018-04-18T15:52:53.177Z,9.59
2018-04-18T15:55:19.506Z,9.45
2018-04-18T15:57:45.850Z,9.34
2018-04-18T16:00:12.142Z,8.47
2018-04-18T16:02:38.478Z,9.45
2018-04-18T16:05:04.798Z,9.24
2018-04-18T16:07:31.902Z,9.66
2018-04-18T16:09:58.209Z,9.38
2018-04-18T16:12:25.354Z,9.26
2018-04-18T16:14:52.506Z,9.36
2018-04-18T16:17:18.850Z,9.89
2018-04-18T16:19:45.280Z,9.63
2018-04-18T16:22:11.631Z,9.90
2018-04-18T16:24:38.177Z,9.21
2018-04-18T16:27:05.277Z,9.58
2018-04-18T16:29:42.746Z,10.22
2018-04-18T16:32:09.118Z,10.53
2018-04-18T16:34:35.684Z,10.74
2018-04-18T16:37:02.025Z,11.20
2018-04-18T16:39:29.091Z,12.83
2018-04-18T16:41:56.146Z,12.35
2018-04-18T16:44:22.650Z,12.22
2018-04-18T16:46:48.984Z,12.58
2018-04-18T16:49:15.288Z,12.83
2018-04-18T16:51:41.564Z,12.75
2018-04-18T16:54:08.665Z,14.59
2018-04-18T16:56:35.018Z,15.29
2018-04-18T16:59:01.296Z,15.80
2018-04-18T17:01:27.594Z,15.72
2018-04-18T17:03:54.650Z,15.76
2018-04-18T17:06:21.766Z,15.76
2018-04-18T17:08:48.245Z,15.66
2018-04-18T17:11:14.723Z,14.24
2018-04-18T17:13:41.159Z,13.25
2018-04-18T17:16:07.830Z,15.00
2018-04-18T17:18:34.154Z,17.23
2018-04-18T17:21:00.549Z,18.90
2018-04-18T17:23:26.905Z,21.22
2018-04-18T17:25:53.238Z,22.79
2018-04-18T17:28:19.579Z,23.63
2018-04-18T17:30:46.690Z,24.64
2018-04-18T17:33:13.131Z,25.48
2018-04-18T17:35:40.270Z,26.26
2018-04-18T17:38:06.565Z,26.23
2018-04-18T17:40:33.661Z,27.01
2018-04-18T17:43:00.014Z,27.84
2018-04-18T17:45:26.549Z,29.08
2018-04-18T17:47:53.012Z,28.95
2018-04-18T17:50:20.063Z,30.51
2018-04-18T17:52:47.181Z,29.99
2018-04-18T17:55:13.518Z,30.67
2018-04-18T17:57:42.206Z,32.73
2018-04-18T18:00:08.590Z,33.74
2018-04-18T18:02:34.936Z,33.67
2018-04-18T18:05:02.074Z,33.97
2018-04-18T18:07:28.395Z,34.91
2018-04-18T18:09:54.725Z,35.21
2018-04-18T18:12:21.113Z,35.89
2018-04-18T18:14:47.389Z,35.97
2018-04-18T18:17:13.724Z,36.77
2018-04-18T18:19:39.996Z,37.06
2018-04-18T18:22:06.322Z,37.65
2018-04-18T18:24:32.623Z,38.25
2018-04-18T18:26:58.925Z,38.60
2018-04-18T18:29:25.968Z,38.83
2018-04-18T18:31:53.076Z,39.67
2018-04-18T18:34:19.362Z,40.21
2018-04-18T18:36:45.729Z,40.95
2018-04-18T18:39:12.061Z,41.02
2018-04-18T18:41:38.360Z,41.14
2018-04-18T18:44:04.660Z,41.38
2018-04-18T18:46:30.978Z,44.02
2018-04-18T18:48:57.318Z,42.24
2018-04-18T18:51:24.373Z,42.69
2018-04-18T18:53:51.506Z,44.18
2018-04-18T18:56:18.204Z,44.91
2018-04-18T18:58:44.590Z,44.06
2018-04-18T19:01:11.754Z,43.99
2018-04-18T19:03:39.152Z,44.19
2018-04-18T19:06:05.692Z,44.94
2018-04-18T19:08:32.082Z,45.23
2018-04-18T19:10:59.497Z,45.61
2018-04-18T19:13:26.685Z,46.35
2018-04-18T19:15:53.777Z,47.02
2018-04-18T19:18:20.119Z,47.51
2018-04-18T19:20:46.427Z,47.75
2018-04-18T19:23:12.724Z,47.25
2018-04-18T19:25:39.764Z,47.58
2018-04-18T19:28:06.164Z,47.73
2018-04-18T19:30:32.418Z,48.29
2018-04-18T19:32:58.716Z,49.21
2018-04-18T19:35:25.039Z,49.84
2018-04-18T19:37:51.403Z,50.18
2018-04-18T19:40:17.689Z,50.62
2018-04-18T19:42:51.303Z,50.92
2018-04-18T19:45:17.629Z,51.34
2018-04-18T19:47:43.998Z,51.59
2018-04-18T19:50:10.306Z,51.79
2018-04-18T19:52:36.598Z,52.08
2018-04-18T19:55:02.952Z,52.27
2018-04-18T19:57:29.248Z,52.92
2018-04-18T19:59:56.282Z,53.23
2018-04-18T20:02:23.391Z,53.84
2018-04-18T20:04:49.728Z,54.43
2018-04-18T20:07:16.029Z,54.99
2018-04-18T20:09:42.774Z,55.33
2018-04-18T20:12:09.123Z,55.66
2018-04-18T20:14:35.415Z,55.99
2018-04-18T20:17:02.436Z,55.89
2018-04-18T20:19:28.695Z,55.86
2018-04-18T20:21:55.726Z,56.00
2018-04-18T20:24:21.997Z,56.14
2018-04-18T20:26:48.260Z,56.40
2018-04-18T20:29:14.544Z,56.67
2018-04-18T20:31:41.568Z,56.87
2018-04-18T20:34:08.626Z,57.19
2018-04-18T20:36:40.797Z,57.18
2018-04-18T20:39:07.950Z,57.38
2018-04-18T20:41:34.989Z,57.25
2018-04-18T20:44:02.012Z,57.63
2018-04-18T20:46:28.291Z,57.62
2018-04-18T20:48:54.587Z,57.38
2018-04-18T20:51:20.868Z,57.38
2018-04-18T20:53:47.194Z,57.28
2018-04-18T20:56:13.490Z,56.94
2018-04-18T20:58:40.568Z,57.26
2018-04-18T21:01:06.875Z,57.94
2018-04-18T21:03:34.785Z,57.80
2018-04-18T21:06:01.055Z,58.00
2018-04-18T21:08:28.108Z,57.77
2018-04-18T21:10:55.150Z,58.08
2018-04-18T21:13:21.466Z,58.08
2018-04-18T21:15:47.759Z,58.55
2018-04-18T21:18:14.084Z,58.82
2018-04-18T21:20:40.367Z,58.70
2018-04-18T21:23:06.736Z,59.22
2018-04-18T21:25:33.003Z,59.41
2018-04-18T21:27:59.257Z,59.73
2018-04-18T21:30:27.039Z,59.58
2018-04-18T21:32:54.058Z,59.32
2018-04-18T21:35:20.344Z,59.45
2018-04-18T21:37:46.610Z,59.84
2018-04-18T21:40:13.320Z,59.64
2018-04-18T21:42:39.601Z,59.91
2018-04-18T21:45:05.880Z,59.50
2018-04-18T21:47:32.126Z,59.45
2018-04-18T21:49:58.537Z,58.90
2018-04-18T21:52:24.837Z,59.39
2018-04-18T21:54:51.864Z,59.95
2018-04-18T21:57:18.160Z,60.37
2018-04-18T21:59:44.469Z,59.80
2018-04-18T22:02:10.759Z,59.49
2018-04-18T22:04:37.047Z,59.90
2018-04-18T22:07:03.323Z,59.73
2018-04-18T22:09:29.645Z,60.07
2018-04-18T22:11:55.922Z,59.86
2018-04-18T22:14:22.201Z,59.75
2018-04-18T22:16:48.521Z,59.80
2018-04-18T22:19:14.777Z,59.59
2018-04-18T22:21:41.138Z,59.17
2018-04-18T22:24:08.179Z,59.35
2018-04-18T22:26:35.207Z,59.25
2018-04-18T22:29:01.467Z,59.42
2018-04-18T22:31:27.751Z,59.78
2018-04-18T22:33:54.021Z,59.44
2018-04-18T22:36:20.315Z,59.48
2018-04-18T22:38:46.582Z,59.84
2018-04-18T22:41:13.113Z,59.67
2018-04-18T22:43:40.147Z,59.84
2018-04-18T22:46:07.177Z,60.12
2018-04-18T22:48:34.967Z,60.40
2018-04-18T22:51:01.981Z,60.29
2018-04-18T22:53:28.243Z,60.64
2018-04-18T22:55:56.221Z,61.14
2018-04-18T22:58:22.515Z,60.70
2018-04-18T23:00:49.631Z,60.90
2018-04-18T23:03:15.950Z,61.68
2018-04-18T23:05:42.263Z,61.24
2018-04-18T23:08:08.576Z,61.62
2018-04-18T23:10:34.890Z,62.38
2018-04-18T23:13:01.192Z,62.24
2018-04-18T23:15:27.487Z,62.82
2018-04-18T23:17:55.361Z,61.91
2018-04-18T23:20:21.717Z,63.00
2018-04-18T23:22:47.911Z,63.22
2018-04-18T23:25:14.200Z,63.51
2018-04-18T23:27:40.486Z,63.79
2018-04-18T23:30:06.732Z,63.91
2018-04-18T23:32:33.025Z,62.95
2018-04-18T23:35:00.064Z,63.26
2018-04-18T23:37:26.365Z,62.62
2018-04-18T23:39:52.652Z,62.58
2018-04-18T23:42:19.224Z,62.34
2018-04-18T23:44:45.574Z,62.70
2018-04-18T23:47:12.851Z,63.27
2018-04-18T23:49:39.175Z,62.90
2018-04-18T23:52:06.223Z,62.94
2018-04-18T23:54:33.290Z,63.15
2018-04-18T23:57:00.323Z,63.48
2018-04-18T23:59:27.363Z,63.48
